• Join FlightAware (Why Join?)
  • Login
  • US Flag 
07:29AM EST


 

Airport Tracker/Info


-or-


 

Live Flight TrackerFlight Track Log ✈ ILU45G ✈ 27-Feb-2012 ✈ KLAF - KIKK

Flight Track Log - Related Links

Times and Time Zones

All times are in EST time to prevent confusion due to time zone crossing. See the ILU45G flight status page for this flight to view local times or setup timezone preferences in your user account.

Time Position Orientation Groundspeed Altitude Reporting Facility
EST Latitude Longitude Course Direction KTS MPH feet Rate Location/Type
10:18PM 40.4153 -86.9339 317° Northwest 79 91 1,900  Level Chicago Center
10:19PM 40.4347 -86.9578 331° Northwest 82 94 2,900 780 Climbing Chicago Center
10:20PM 40.4558 -86.9733 321° Northwest 87 100 3,600 540 Climbing Chicago Center
10:21PM 40.4728 -86.9917 325° Northwest 86 99 4,000 180 Climbing Chicago Center
10:22PM 40.4983 -87.0153 325° Northwest 98 113 4,000  Level Chicago Center
10:23PM 40.5217 -87.0364 320° Northwest 101 116 4,000  Level Chicago Center
10:24PM 40.5431 -87.0603 320° Northwest 100 115 4,000  Level Chicago Center
10:25PM 40.5600 -87.0789 272° West 114 131 4,000  Level Chicago Center
10:26PM 40.5606 -87.1033 275° West 100 115 4,000  Level Chicago Center
10:27PM 40.5633 -87.1417 272° West 94 108 4,000 -60 Level Chicago Center
10:28PM 40.5642 -87.1797 275° West 101 116 3,900 -60 Descending Chicago Center
10:29PM 40.5669 -87.2181 262° West 106 122 3,900 60 Level Chicago Center
10:30PM 40.5633 -87.2536 272° West 100 115 4,100  Climbing Chicago Center
10:31PM 40.5642 -87.2892 275° West 100 115 3,900 -60 Descending Chicago Center
10:32PM 40.5669 -87.3272 267° West 100 115 4,000  Climbing Chicago Center
10:33PM 40.5656 -87.3656 275° West 100 115 4,000 -60 Level Chicago Center
10:34PM 40.5681 -87.4011 280° West 100 115 3,900 -60 Descending Chicago Center
10:35PM 40.5731 -87.4392 275° West 100 115 3,900  Level Chicago Center
10:36PM 40.5756 -87.4747 271° West 100 115 4,000  Climbing Chicago Center
10:37PM 40.5761 -87.5103 267° West 100 115 4,000  Level Chicago Center
10:38PM 40.5747 -87.5486 267° West 100 115 4,000  Level Chicago Center
10:39PM 40.5733 -87.5842 271° West 100 115 4,000  Level Chicago Center
10:40PM 40.5739 -87.6225 267° West 105 121 4,000  Level Chicago Center
10:41PM 40.5725 -87.6633 271° West 105 121 4,000  Level Chicago Center
10:42PM 40.5728 -87.6989 267° West 105 121 4,000  Level Chicago Center
10:43PM 40.5714 -87.7372 279° West 105 121 4,000  Level Chicago Center
10:44PM 40.5761 -87.7756 271° West 105 121 4,000  Level Chicago Center
10:45PM 40.5767 -87.8136 275° West 105 121 4,000 -60 Level Chicago Center
10:46PM 40.5792 -87.8547 275° West 105 121 3,900  Descending Chicago Center
10:47PM 40.5817 -87.8900 271° West 105 121 4,000  Climbing Chicago Center
10:48PM 40.5822 -87.9283 274° West 105 121 4,000  Level Chicago Center
10:49PM 40.5847 -87.9719 276° West 105 121 4,000  Level Chicago Center
10:50PM 40.5872 -88.0047 271° West 105 121 4,000 -60 Level Chicago Center
10:51PM 40.5878 -88.0486 267° West 105 121 3,900  Descending Chicago Center
10:52PM 40.5861 -88.0869 267° West 105 121 4,000  Climbing Chicago Center
10:53PM 40.5844 -88.1250 267° West 105 121 4,000  Level Chicago Center
10:54PM 40.5828 -88.1633 313° West 105 121 4,000  Level Chicago Center
10:55PM 40.6019 -88.1906 31° Northeast 99 114 4,100  Climbing Chicago Center
10:56PM 40.6267 -88.1708 27° Northeast 106 122 4,000 -60 Descending Chicago Center
10:57PM 40.6556 -88.1511 22° Northeast 106 122 4,000  Level Chicago Center
10:58PM 40.6825 -88.1369 16° North 111 128 4,000  Level Chicago Center
10:59PM 40.7117 -88.1256 19° North 111 128 4,000  Level Chicago Center
11:00PM 40.7428 -88.1111 20° North 111 128 4,000  Level Chicago Center
11:01PM 40.7719 -88.0969 20° North 106 122 4,000  Level Chicago Center
11:02PM 40.8008 -88.0828 25° Northeast 106 122 4,000  Level Chicago Center
11:03PM 40.8278 -88.0658 17° North 106 122 4,000  Level Chicago Center
11:04PM 40.8569 -88.0542 27° Northeast 106 122 4,000 -60 Level Chicago Center
11:05PM 40.8858 -88.0344 29° Northeast 106 122 3,900 -240 Descending Chicago Center
11:06PM 40.9128 -88.0147 43° Northeast 106 122 3,600 -360 Descending Chicago Center
11:07PM 40.9353 -87.9867 43° Northeast 106 122 3,200 -540 Descending Chicago Center
11:08PM 40.9558 -87.9614 37° Northeast 106 122 2,600 -420 Descending Chicago Center
11:09PM 40.9783 -87.9389 37° Northeast 106 122 2,400 -180 Descending Chicago Center
11:10PM 41.0011 -87.9164 34° Northeast 106 122 2,300 -300 Descending Chicago Center
11:11PM 41.0258 -87.8939 29° Northeast 106 122 1,900 -540 Descending Chicago Center
11:12PM 41.0486 -87.8769 35° Northeast 106 122 1,300 -540 Descending Chicago Center
11:13PM 41.0608 -87.8656 35° Northeast 89 102 900 -420 Descending Chicago Center